createdAt,value
2017-11-20T00:00:52.000Z,98187.33
2017-11-20T00:01:54.919Z,98185.36
2017-11-20T00:02:57.587Z,98188.43
2017-11-20T00:04:00.215Z,98194.35
2017-11-20T00:05:02.835Z,98194.87
2017-11-20T00:06:05.559Z,98187.42
2017-11-20T00:07:08.180Z,98186.13
2017-11-20T00:08:10.822Z,98191.97
2017-11-20T00:09:13.455Z,98185.45
2017-11-20T00:10:16.099Z,98188.73
2017-11-20T00:11:18.732Z,98182.78
2017-11-20T00:12:21.433Z,98183.69
2017-11-20T00:13:24.072Z,98185.30
2017-11-20T00:14:26.996Z,98189.45
2017-11-20T00:15:29.628Z,98180.55
2017-11-20T00:16:32.268Z,98179.76
2017-11-20T00:17:35.597Z,98185.47
2017-11-20T00:18:38.231Z,98178.73
2017-11-20T00:19:40.867Z,98174.39
2017-11-20T00:20:43.787Z,98178.95
2017-11-20T00:21:46.450Z,98173.01
2017-11-20T00:22:49.094Z,98170.02
2017-11-20T00:23:51.729Z,98170.72
2017-11-20T00:24:54.380Z,98168.21
2017-11-20T00:25:57.034Z,98171.37
2017-11-20T00:27:00.012Z,98172.66
2017-11-20T00:28:02.641Z,98177.70
2017-11-20T00:29:05.314Z,98182.77
2017-11-20T00:30:07.930Z,98178.10
2017-11-20T00:31:10.565Z,98175.43
2017-11-20T00:32:13.183Z,98172.66
2017-11-20T00:33:16.179Z,98172.64
2017-11-20T00:34:18.804Z,98173.33
2017-11-20T00:35:21.509Z,98180.66
2017-11-20T00:36:24.177Z,98172.92
2017-11-20T00:37:26.796Z,98178.77
2017-11-20T00:38:29.441Z,98171.36
2017-11-20T00:39:32.310Z,98167.38
2017-11-20T00:40:34.885Z,98175.11
2017-11-20T00:41:37.502Z,98177.66
2017-11-20T00:42:40.136Z,98175.88
2017-11-20T00:43:42.775Z,98170.13
2017-11-20T00:44:45.414Z,98174.22
2017-11-20T00:45:48.359Z,98169.34
2017-11-20T00:46:50.991Z,98174.70
2017-11-20T00:47:53.694Z,98176.66
2017-11-20T00:48:56.344Z,98164.01
2017-11-20T00:49:58.970Z,98174.80
2017-11-20T00:51:01.697Z,98179.16
2017-11-20T00:52:04.848Z,98177.75
2017-11-20T00:53:07.602Z,98178.94
2017-11-20T00:54:10.269Z,98176.05
2017-11-20T00:55:13.968Z,98181.20
2017-11-20T00:56:16.841Z,98171.30
2017-11-20T00:57:20.014Z,98173.98
2017-11-20T00:58:23.781Z,98182.49
2017-11-20T00:59:26.475Z,98180.30
2017-11-20T01:00:30.404Z,98174.45
2017-11-20T01:01:33.096Z,98176.42
2017-11-20T01:02:35.722Z,98178.61
2017-11-20T01:03:38.323Z,98172.70
2017-11-20T01:04:41.338Z,98171.70
2017-11-20T01:05:43.964Z,98162.39
2017-11-20T01:06:46.622Z,98160.78
2017-11-20T01:07:49.235Z,98167.72
2017-11-20T01:08:51.984Z,98169.00
2017-11-20T01:09:54.964Z,98176.45
2017-11-20T01:10:58.072Z,98161.90
2017-11-20T01:12:01.669Z,98170.89
2017-11-20T01:13:05.648Z,98171.50
2017-11-20T01:14:08.344Z,98172.47
2017-11-20T01:15:11.198Z,98171.49
2017-11-20T01:16:13.814Z,98173.08
2017-11-20T01:17:17.381Z,98176.56
2017-11-20T01:18:20.315Z,98181.01
2017-11-20T01:19:23.000Z,98164.56
2017-11-20T01:20:25.672Z,98173.78
2017-11-20T01:21:28.341Z,98178.03
2017-11-20T01:22:30.976Z,98176.67
2017-11-20T01:23:33.622Z,98180.53
2017-11-20T01:24:36.293Z,98170.73
2017-11-20T01:25:38.933Z,98171.14
2017-11-20T01:26:41.550Z,98171.52
2017-11-20T01:27:44.170Z,98176.57
2017-11-20T01:28:47.101Z,98177.36
2017-11-20T01:29:49.761Z,98176.48
2017-11-20T01:30:52.391Z,98189.35
2017-11-20T01:31:55.064Z,98185.23
2017-11-20T01:32:57.673Z,98184.05
2017-11-20T01:34:00.300Z,98175.05
2017-11-20T01:35:03.247Z,98197.53
2017-11-20T01:36:06.007Z,98180.49
2017-11-20T01:37:08.628Z,98185.84
2017-11-20T01:38:11.280Z,98180.49
2017-11-20T01:39:13.899Z,98184.47
2017-11-20T01:40:16.510Z,98184.66
2017-11-20T01:41:19.584Z,98181.30
2017-11-20T01:42:22.230Z,98186.45
2017-11-20T01:43:24.930Z,98186.64
2017-11-20T01:44:27.559Z,98186.05
2017-11-20T01:45:30.200Z,98183.27
2017-11-20T01:46:32.848Z,98180.55
2017-11-20T01:47:35.759Z,98186.48
2017-11-20T01:48:38.393Z,98180.74
2017-11-20T01:49:41.006Z,98179.16
2017-11-20T01:50:43.634Z,98175.39
2017-11-20T01:51:46.255Z,98176.16
2017-11-20T01:52:48.879Z,98175.38
2017-11-20T01:53:51.799Z,98176.55
2017-11-20T01:54:54.492Z,98174.57
2017-11-20T01:55:57.149Z,98177.55
2017-11-20T01:56:59.812Z,98172.73
2017-11-20T01:58:02.471Z,98164.71
2017-11-20T01:59:05.127Z,98168.17
2017-11-20T02:00:08.225Z,98166.96
2017-11-20T02:01:10.939Z,98163.89
2017-11-20T02:02:13.551Z,98169.67
2017-11-20T02:03:16.118Z,98165.80
2017-11-20T02:04:18.659Z,98160.25
2017-11-20T02:05:21.191Z,98166.38
2017-11-20T02:06:24.052Z,98159.55
2017-11-20T02:07:26.616Z,98168.78
2017-11-20T02:08:29.137Z,98156.52
2017-11-20T02:09:31.775Z,98175.02
2017-11-20T02:10:34.444Z,98166.22
2017-11-20T02:11:37.119Z,98165.03
2017-11-20T02:12:40.022Z,98162.63
2017-11-20T02:13:42.679Z,98156.48
2017-11-20T02:14:45.959Z,98169.26
2017-11-20T02:15:48.609Z,98170.56
2017-11-20T02:16:51.495Z,98171.64
2017-11-20T02:17:54.171Z,98169.66
2017-11-20T02:18:57.188Z,98176.59
2017-11-20T02:19:59.808Z,98170.17
2017-11-20T02:21:02.475Z,98173.83
2017-11-20T02:22:05.110Z,98161.53
2017-11-20T02:23:07.719Z,98174.71
2017-11-20T02:24:10.349Z,98161.45
2017-11-20T02:25:13.279Z,98153.02
2017-11-20T02:26:15.892Z,98166.89
2017-11-20T02:27:18.577Z,98164.53
2017-11-20T02:28:21.227Z,98169.09
2017-11-20T02:29:23.839Z,98180.95
2017-11-20T02:30:26.859Z,98178.58
2017-11-20T02:31:29.778Z,98176.21
2017-11-20T02:32:32.368Z,98170.06
2017-11-20T02:33:34.983Z,98177.52
2017-11-20T02:34:37.605Z,98179.59
2017-11-20T02:35:40.224Z,98188.60
2017-11-20T02:36:42.849Z,98188.50
2017-11-20T02:37:45.486Z,98183.94
2017-11-20T02:38:48.115Z,98171.35
2017-11-20T02:39:50.738Z,98183.34
2017-11-20T02:40:53.465Z,98180.37
2017-11-20T02:41:56.074Z,98187.81
2017-11-20T02:42:58.993Z,98182.15
2017-11-20T02:44:01.629Z,98173.33
2017-11-20T02:45:04.233Z,98177.80
2017-11-20T02:46:06.802Z,98171.47
2017-11-20T02:47:09.353Z,98171.67
2017-11-20T02:48:11.943Z,98168.50
2017-11-20T02:49:14.838Z,98168.30
2017-11-20T02:50:17.470Z,98185.23
2017-11-20T02:51:20.086Z,98181.19
2017-11-20T02:52:22.754Z,98176.53
2017-11-20T02:53:25.488Z,98174.84
2017-11-20T02:54:28.142Z,98188.12
2017-11-20T02:55:31.057Z,98180.57
2017-11-20T02:56:33.644Z,98184.55
2017-11-20T02:57:36.254Z,98179.02
2017-11-20T02:58:38.848Z,98173.27
2017-11-20T02:59:41.498Z,98182.47
2017-11-20T03:00:44.181Z,98181.08
2017-11-20T03:01:47.084Z,98179.49
2017-11-20T03:02:49.702Z,98187.60
2017-11-20T03:03:52.303Z,98188.32
2017-11-20T03:04:54.943Z,98183.37
2017-11-20T03:05:57.502Z,98178.70
2017-11-20T03:07:00.086Z,98185.53
2017-11-20T03:08:03.375Z,98177.41
2017-11-20T03:09:05.931Z,98170.48
2017-11-20T03:10:09.183Z,98164.34
2017-11-20T03:11:11.806Z,98187.41
2017-11-20T03:12:14.385Z,98172.69
2017-11-20T03:13:16.926Z,98168.50
2017-11-20T03:14:19.773Z,98175.83
2017-11-20T03:15:22.327Z,98165.16
2017-11-20T03:16:24.916Z,98173.25
2017-11-20T03:17:28.377Z,98164.64
2017-11-20T03:18:30.955Z,98163.58
2017-11-20T03:19:33.499Z,98167.53
2017-11-20T03:20:36.349Z,98167.02
2017-11-20T03:21:38.950Z,98163.18
2017-11-20T03:22:41.502Z,98160.78
2017-11-20T03:23:44.092Z,98170.20
2017-11-20T03:24:46.731Z,98164.16
2017-11-20T03:25:49.349Z,98165.75
2017-11-20T03:26:52.283Z,98164.56
2017-11-20T03:27:54.941Z,98162.28
2017-11-20T03:28:57.572Z,98149.10
2017-11-20T03:30:00.207Z,98163.85
2017-11-20T03:31:02.846Z,98166.64
2017-11-20T03:32:05.481Z,98164.95
2017-11-20T03:33:08.420Z,98158.32
2017-11-20T03:34:11.013Z,98159.51
2017-11-20T03:35:13.646Z,98158.93
2017-11-20T03:36:16.287Z,98161.97
2017-11-20T03:37:18.902Z,98155.05
2017-11-20T03:38:21.502Z,98154.27
2017-11-20T03:39:25.234Z,98146.34
2017-11-20T03:40:27.827Z,98157.64
2017-11-20T03:41:30.666Z,98158.02
2017-11-20T03:42:33.305Z,98168.31
2017-11-20T03:43:35.991Z,98166.16
2017-11-20T03:44:38.597Z,98158.14
2017-11-20T03:45:41.559Z,98163.47
2017-11-20T03:46:44.226Z,98169.70
2017-11-20T03:47:46.868Z,98167.92
2017-11-20T03:48:49.462Z,98163.76
2017-11-20T03:49:52.070Z,98174.66
2017-11-20T03:50:54.677Z,98172.09
2017-11-20T03:51:57.718Z,98165.94
2017-11-20T03:53:00.354Z,98161.98
2017-11-20T03:54:02.982Z,98166.74
2017-11-20T03:55:05.622Z,98169.61
2017-11-20T03:56:08.226Z,98159.59
2017-11-20T03:57:10.876Z,98167.13
2017-11-20T03:58:13.782Z,98174.08
2017-11-20T03:59:16.486Z,98169.91
2017-11-20T04:00:19.125Z,98167.13
2017-11-20T04:01:21.749Z,98170.30
2017-11-20T04:02:24.391Z,98165.25
2017-11-20T04:03:27.004Z,98167.44
2017-11-20T04:04:29.600Z,98166.55
2017-11-20T04:05:32.243Z,98162.38
2017-11-20T04:06:34.895Z,98164.87
2017-11-20T04:07:37.520Z,98162.77
2017-11-20T04:08:40.137Z,98162.39
2017-11-20T04:09:42.782Z,98164.66
2017-11-20T04:10:45.667Z,98160.21
2017-11-20T04:11:48.295Z,98154.38
2017-11-20T04:12:50.906Z,98160.52
2017-11-20T04:13:53.536Z,98166.05
2017-11-20T04:14:56.196Z,98157.42
2017-11-20T04:15:58.807Z,98150.91
2017-11-20T04:17:01.739Z,98152.89
2017-11-20T04:18:04.435Z,98161.88
2017-11-20T04:19:07.047Z,98161.02
2017-11-20T04:20:09.657Z,98156.66
2017-11-20T04:21:12.265Z,98154.47
2017-11-20T04:22:15.063Z,98148.73
2017-11-20T04:23:18.075Z,98158.91
2017-11-20T04:24:20.760Z,98160.79
2017-11-20T04:25:23.381Z,98169.20
2017-11-20T04:26:25.936Z,98165.74
2017-11-20T04:27:29.059Z,98167.15
2017-11-20T04:28:31.635Z,98168.12
2017-11-20T04:29:34.622Z,98163.97
2017-11-20T04:30:37.193Z,98161.98
2017-11-20T04:31:39.750Z,98165.45
2017-11-20T04:32:42.340Z,98161.20
2017-11-20T04:33:44.912Z,98163.97
2017-11-20T04:34:47.493Z,98167.15
2017-11-20T04:35:50.404Z,98166.73
2017-11-20T04:36:53.049Z,98161.41
2017-11-20T04:37:55.713Z,98172.59
2017-11-20T04:38:58.329Z,98152.20
2017-11-20T04:40:00.956Z,98162.98
2017-11-20T04:41:03.624Z,98173.48
2017-11-20T04:42:06.499Z,98164.06
2017-11-20T04:43:09.089Z,98167.13
2017-11-20T04:44:11.738Z,98165.15
2017-11-20T04:45:14.392Z,98161.19
2017-11-20T04:46:17.076Z,98158.44
2017-11-20T04:47:19.725Z,98158.24
2017-11-20T04:48:22.701Z,98155.05
2017-11-20T04:49:25.322Z,98155.27
2017-11-20T04:50:27.965Z,98158.92
2017-11-20T04:51:30.664Z,98155.87
2017-11-20T04:52:33.266Z,98162.08
2017-11-20T04:53:35.858Z,98162.57
2017-11-20T04:54:38.762Z,98154.08
2017-11-20T04:55:41.395Z,98156.44
2017-11-20T04:56:43.996Z,98152.67
2017-11-20T04:57:46.620Z,98157.25
2017-11-20T04:58:49.304Z,98164.55
2017-11-20T04:59:51.949Z,98160.02
2017-11-20T05:15:08.024Z,98153.80
2017-11-20T05:16:10.638Z,98152.67
2017-11-20T05:17:13.245Z,98158.24
2017-11-20T05:18:15.867Z,98156.05
2017-11-20T05:19:18.514Z,98158.64
2017-11-20T05:20:21.489Z,98155.06
2017-11-20T05:21:24.197Z,98153.98
2017-11-20T05:22:26.819Z,98158.23
2017-11-20T05:23:29.470Z,98155.38
2017-11-20T05:24:32.083Z,98148.14
2017-11-20T05:25:34.823Z,98149.32
2017-11-20T05:26:37.897Z,98147.74
2017-11-20T05:27:40.406Z,98157.03
2017-11-20T05:28:42.941Z,98151.41
2017-11-20T05:29:45.455Z,98147.15
2017-11-20T05:30:47.987Z,98155.75
2017-11-20T05:31:50.490Z,98145.95
2017-11-20T05:32:53.540Z,98150.23
2017-11-20T05:33:56.147Z,98153.28
2017-11-20T05:34:58.754Z,98161.19
2017-11-20T05:36:01.478Z,98161.88
2017-11-20T05:37:04.888Z,98155.45
2017-11-20T05:38:07.517Z,98154.06
2017-11-20T05:39:10.456Z,98161.79
2017-11-20T05:40:13.087Z,98152.88
2017-11-20T05:41:15.952Z,98157.23
2017-11-20T05:42:18.559Z,98148.94
2017-11-20T05:43:21.105Z,98150.98
2017-11-20T05:44:24.107Z,98146.54
2017-11-20T05:45:26.787Z,98151.29
2017-11-20T05:46:29.383Z,98152.70
2017-11-20T05:47:32.048Z,98154.09
2017-11-20T05:48:36.544Z,98161.48
2017-11-20T05:49:39.191Z,98145.05
2017-11-20T05:50:42.137Z,98155.66
2017-11-20T05:51:44.776Z,98160.79
2017-11-20T05:52:47.427Z,98157.23
2017-11-20T05:53:49.997Z,98154.86
2017-11-20T05:54:52.623Z,98154.86
2017-11-20T05:55:55.230Z,98149.91
2017-11-20T05:56:58.079Z,98143.78
2017-11-20T05:58:00.742Z,98154.48
2017-11-20T05:59:03.397Z,98151.58
2017-11-20T06:00:06.090Z,98139.44
2017-11-20T06:01:08.740Z,98150.52
2017-11-20T06:02:11.431Z,98148.02
2017-11-20T06:03:14.062Z,98153.88
2017-11-20T06:04:16.740Z,98146.94
2017-11-20T06:05:19.395Z,98149.83
2017-11-20T06:06:22.042Z,98150.51
2017-11-20T06:07:24.650Z,98155.75
2017-11-20T06:08:27.658Z,98153.88
2017-11-20T06:09:30.249Z,98147.23
2017-11-20T06:10:32.819Z,98152.48
2017-11-20T06:11:35.373Z,98154.66
2017-11-20T06:12:37.999Z,98151.01
2017-11-20T06:13:40.647Z,98156.14
2017-11-20T06:14:43.589Z,98148.72
2017-11-20T06:15:46.218Z,98148.91
2017-11-20T06:16:48.896Z,98152.28
2017-11-20T06:17:51.517Z,98153.19
2017-11-20T06:18:54.150Z,98148.13
2017-11-20T06:19:56.820Z,98154.45
2017-11-20T06:20:59.943Z,98152.47
2017-11-20T06:22:02.741Z,98155.16
2017-11-20T06:23:05.378Z,98153.66
2017-11-20T06:24:08.055Z,98148.72
2017-11-20T06:25:10.700Z,98150.59
2017-11-20T06:26:13.427Z,98150.30
2017-11-20T06:27:16.382Z,98150.21
2017-11-20T06:28:18.951Z,98153.08
2017-11-20T06:29:21.596Z,98154.96
2017-11-20T06:30:24.284Z,98144.67
2017-11-20T06:31:26.914Z,98146.84
2017-11-20T06:32:29.446Z,98152.09
2017-11-20T06:33:33.149Z,98151.10
2017-11-20T06:34:35.683Z,98155.84
2017-11-20T06:35:38.226Z,98154.05
2017-11-20T06:36:40.798Z,98164.93
2017-11-20T06:37:43.511Z,98167.10
2017-11-20T06:38:46.152Z,98167.67
2017-11-20T06:39:48.817Z,98163.33
2017-11-20T06:40:51.434Z,98167.91
2017-11-20T06:41:54.064Z,98161.88
2017-11-20T06:42:56.687Z,98156.63
2017-11-20T06:43:59.255Z,98161.07
2017-11-20T06:45:02.249Z,98168.59
2017-11-20T06:46:04.897Z,98159.50
2017-11-20T06:47:07.536Z,98169.58
2017-11-20T06:48:10.597Z,98173.86
2017-11-20T06:49:13.230Z,98176.39
2017-11-20T06:50:15.899Z,98184.57
2017-11-20T06:51:18.836Z,98187.16
2017-11-20T06:52:21.463Z,98179.66
2017-11-20T06:53:24.170Z,98184.31
2017-11-20T06:54:26.773Z,98181.34
2017-11-20T06:55:29.433Z,98181.24
2017-11-20T06:56:31.971Z,98181.64
2017-11-20T06:57:35.040Z,98188.77
2017-11-20T06:58:37.687Z,98189.46
2017-11-20T06:59:40.299Z,98186.99
2017-11-20T07:00:43.441Z,98187.87
2017-11-20T07:01:45.972Z,98193.63
2017-11-20T07:02:48.573Z,98189.77
2017-11-20T07:03:51.138Z,98185.30
2017-11-20T07:04:53.694Z,98185.98
2017-11-20T07:05:56.263Z,98184.72
2017-11-20T07:06:58.864Z,98176.70
2017-11-20T07:08:03.084Z,98177.89
2017-11-20T07:09:05.856Z,98185.80
2017-11-20T07:10:08.346Z,98183.33
2017-11-20T07:11:11.030Z,98187.80
2017-11-20T07:12:13.679Z,98182.66
2017-11-20T07:13:16.269Z,98181.37
2017-11-20T07:14:18.861Z,98187.39
2017-11-20T07:15:21.936Z,98187.55
2017-11-20T07:16:24.551Z,98181.31
2017-11-20T07:17:27.188Z,98181.44
2017-11-20T07:18:29.823Z,98184.21
2017-11-20T07:19:32.479Z,98183.73
2017-11-20T07:20:35.084Z,98179.66
2017-11-20T07:21:38.171Z,98177.41
2017-11-20T07:22:40.892Z,98177.06
2017-11-20T07:23:43.532Z,98169.25
2017-11-20T07:24:46.306Z,98170.86
2017-11-20T07:25:48.950Z,98174.40
2017-11-20T07:26:51.536Z,98167.87
2017-11-20T07:27:54.634Z,98175.09
2017-11-20T07:28:57.387Z,98167.19
2017-11-20T07:30:00.044Z,98170.16
2017-11-20T07:31:02.665Z,98172.73
2017-11-20T07:32:05.337Z,98173.23
2017-11-20T07:33:07.985Z,98169.97
2017-11-20T07:34:11.008Z,98170.37
2017-11-20T07:35:13.751Z,98172.25
2017-11-20T07:36:16.347Z,98170.64
2017-11-20T07:37:18.987Z,98170.95
2017-11-20T07:38:21.635Z,98176.88
2017-11-20T07:39:24.292Z,98175.59
2017-11-20T07:40:27.253Z,98179.16
2017-11-20T07:41:29.907Z,98177.98
2017-11-20T07:42:32.661Z,98178.36
2017-11-20T07:43:35.396Z,98181.71
2017-11-20T07:44:38.012Z,98178.55
2017-11-20T07:45:40.983Z,98182.40
2017-11-20T07:46:44.087Z,98185.88
2017-11-20T07:47:46.720Z,98180.61
2017-11-20T07:48:49.334Z,98182.41
2017-11-20T07:49:52.015Z,98184.79
2017-11-20T07:50:54.665Z,98188.64
2017-11-20T07:51:57.306Z,98183.28
2017-11-20T07:53:00.301Z,98183.52
2017-11-20T07:54:02.997Z,98185.88
2017-11-20T07:55:05.641Z,98183.73
2017-11-20T07:56:08.285Z,98187.29
2017-11-20T07:57:10.936Z,98188.17
2017-11-20T07:58:13.599Z,98188.47
2017-11-20T07:59:20.118Z,98194.98
2017-11-20T08:00:23.166Z,98194.28
2017-11-20T08:01:25.825Z,98192.52
2017-11-20T08:02:28.525Z,98194.02
2017-11-20T08:03:31.195Z,98191.92
2017-11-20T08:04:33.846Z,98189.95
2017-11-20T08:05:37.282Z,98193.61
2017-11-20T08:06:39.966Z,98191.61
2017-11-20T08:07:42.558Z,98194.08
2017-11-20T08:08:46.487Z,98194.02
2017-11-20T08:09:49.359Z,98195.69
2017-11-20T08:10:52.029Z,98194.05
2017-11-20T08:11:55.448Z,98195.15
2017-11-20T08:12:58.650Z,98196.05
2017-11-20T08:14:02.363Z,98197.58
2017-11-20T08:15:05.216Z,98194.37
2017-11-20T08:16:07.902Z,98188.22
2017-11-20T08:17:10.523Z,98202.27
2017-11-20T08:18:15.410Z,98195.45
2017-11-20T08:19:19.064Z,98191.39
2017-11-20T08:20:21.850Z,98194.08
2017-11-20T08:21:24.513Z,98196.54
2017-11-20T08:22:27.998Z,98199.48
2017-11-20T08:23:30.834Z,98193.97
2017-11-20T08:24:35.218Z,98195.55
2017-11-20T08:25:37.873Z,98193.20
2017-11-20T08:26:42.184Z,98195.36
2017-11-20T08:27:44.906Z,98188.45
2017-11-20T08:28:47.741Z,98191.16
2017-11-20T08:29:50.443Z,98187.42
2017-11-20T08:30:55.052Z,98186.72
2017-11-20T08:31:57.687Z,98188.59
2017-11-20T08:33:00.435Z,98190.17
2017-11-20T08:34:03.344Z,98187.20
2017-11-20T08:35:05.939Z,98190.25
2017-11-20T08:36:09.249Z,98194.70
2017-11-20T08:37:13.203Z,98193.12
2017-11-20T08:38:15.990Z,98195.91
2017-11-20T08:39:18.717Z,98177.53
2017-11-20T08:40:22.475Z,98191.46
2017-11-20T08:41:25.120Z,98190.47
2017-11-20T08:42:27.768Z,98182.73
2017-11-20T08:43:32.102Z,98184.02
2017-11-20T08:44:36.019Z,98180.89
2017-11-20T08:45:38.835Z,98183.05
2017-11-20T08:46:42.526Z,98184.02
2017-11-20T08:47:45.158Z,98182.44
2017-11-20T08:48:49.021Z,98183.13
2017-11-20T08:49:52.344Z,98178.80
2017-11-20T08:50:56.595Z,98168.12
2017-11-20T08:51:59.465Z,98175.34
2017-11-20T08:53:02.161Z,98175.75
2017-11-20T08:54:04.789Z,98171.16
2017-11-20T08:55:07.825Z,98174.03
2017-11-20T08:56:11.183Z,98175.42
2017-11-20T08:57:14.350Z,98173.55
2017-11-20T08:58:17.052Z,98172.96
2017-11-20T08:59:20.146Z,98162.06
2017-11-20T09:00:23.108Z,98175.39
2017-11-20T09:01:26.801Z,98174.30
2017-11-20T09:02:30.309Z,98164.02
2017-11-20T09:03:33.624Z,98168.86
2017-11-20T09:04:36.293Z,98168.75
2017-11-20T09:05:39.518Z,98169.16
2017-11-20T09:06:42.392Z,98167.69
2017-11-20T09:07:45.491Z,98173.52
2017-11-20T09:08:48.415Z,98164.61
2017-11-20T09:09:51.265Z,98163.65
2017-11-20T09:10:55.388Z,98168.48
2017-11-20T09:11:58.713Z,98155.05
2017-11-20T09:13:01.416Z,98160.20
2017-11-20T09:14:04.172Z,98165.04
2017-11-20T09:15:07.339Z,98164.53
2017-11-20T09:16:10.436Z,98168.94
2017-11-20T09:17:13.065Z,98167.25
2017-11-20T09:18:15.798Z,98164.98
2017-11-20T09:19:18.457Z,98152.16
2017-11-20T09:20:21.152Z,98149.59
2017-11-20T09:21:24.147Z,98154.63
2017-11-20T09:22:26.807Z,98147.80
2017-11-20T09:23:29.499Z,98157.19
2017-11-20T09:24:32.168Z,98167.95
2017-11-20T09:25:34.835Z,98160.45
2017-11-20T09:26:37.514Z,98151.69
2017-11-20T09:27:40.466Z,98154.33
2017-11-20T09:28:43.093Z,98160.45
2017-11-20T09:29:45.708Z,98157.92
2017-11-20T09:30:48.336Z,98158.51
2017-11-20T09:31:50.982Z,98164.45
2017-11-20T09:32:53.648Z,98152.05
2017-11-20T09:33:56.608Z,98166.11
2017-11-20T09:34:59.281Z,98162.04
2017-11-20T09:36:01.968Z,98160.03
2017-11-20T09:37:04.602Z,98156.42
2017-11-20T09:38:07.286Z,98151.55
2017-11-20T09:39:09.977Z,98155.24
2017-11-20T09:40:12.921Z,98159.66
2017-11-20T09:41:15.565Z,98151.39
2017-11-20T09:42:18.179Z,98159.91
2017-11-20T09:43:20.811Z,98157.70
2017-11-20T09:44:23.446Z,98158.11
2017-11-20T09:45:26.040Z,98152.86
2017-11-20T09:46:28.925Z,98148.05
2017-11-20T09:47:31.536Z,98155.56
2017-11-20T09:48:34.206Z,98151.02
2017-11-20T09:49:36.870Z,98147.27
2017-11-20T09:50:39.517Z,98147.08
2017-11-20T09:51:42.252Z,98152.00
2017-11-20T09:52:45.397Z,98146.46
2017-11-20T09:53:48.010Z,98137.47
2017-11-20T09:54:50.672Z,98145.80
2017-11-20T09:55:53.349Z,98147.23
2017-11-20T09:56:56.022Z,98143.30
2017-11-20T09:57:58.680Z,98147.09
2017-11-20T09:59:01.304Z,98150.23
2017-11-20T10:00:04.009Z,98147.45
2017-11-20T10:01:06.639Z,98146.86
2017-11-20T10:02:09.316Z,98148.17
2017-11-20T10:03:12.417Z,98141.23
2017-11-20T10:04:15.411Z,98131.55
2017-11-20T10:05:18.088Z,98141.03
2017-11-20T10:06:20.821Z,98144.08
2017-11-20T10:07:23.524Z,98137.05
2017-11-20T10:08:26.204Z,98137.92
2017-11-20T10:09:28.861Z,98140.50
2017-11-20T10:10:31.876Z,98128.88
2017-11-20T10:11:34.555Z,98123.63
2017-11-20T10:12:37.394Z,98121.04
2017-11-20T10:13:40.257Z,98122.16
2017-11-20T10:14:42.997Z,98124.23
2017-11-20T10:15:45.809Z,98128.29
2017-11-20T10:16:48.967Z,98135.38
2017-11-20T10:17:51.646Z,98133.00
2017-11-20T10:18:54.326Z,98136.19
2017-11-20T10:19:57.067Z,98130.38
2017-11-20T10:20:59.767Z,98122.45
2017-11-20T10:22:03.494Z,98126.39
2017-11-20T10:23:06.569Z,98132.63
2017-11-20T10:24:09.666Z,98118.05
2017-11-20T10:25:12.360Z,98119.63
2017-11-20T10:26:15.056Z,98119.11
2017-11-20T10:27:17.987Z,98127.03
2017-11-20T10:28:20.706Z,98118.71
2017-11-20T10:29:23.804Z,98110.92
2017-11-20T10:30:26.442Z,98113.20
2017-11-20T10:31:29.159Z,98113.42
2017-11-20T10:32:31.832Z,98111.22
2017-11-20T10:33:34.585Z,98106.67
2017-11-20T10:34:37.263Z,98107.19
2017-11-20T10:35:40.180Z,98109.53
2017-11-20T10:36:42.873Z,98101.70
2017-11-20T10:37:45.555Z,98100.55
2017-11-20T10:38:48.288Z,98100.81
2017-11-20T10:39:50.973Z,98100.73
2017-11-20T10:40:53.614Z,98101.88
2017-11-20T10:41:56.275Z,98107.23
2017-11-20T10:42:58.916Z,98105.84
2017-11-20T10:44:01.572Z,98103.86
2017-11-20T10:45:04.301Z,98097.15
2017-11-20T10:46:06.951Z,98088.86
2017-11-20T10:47:09.962Z,98093.03
2017-11-20T10:48:12.671Z,98093.43
2017-11-20T10:49:15.350Z,98090.65
2017-11-20T10:50:17.984Z,98084.34
2017-11-20T10:51:20.647Z,98080.00
2017-11-20T10:52:23.300Z,98077.53
2017-11-20T10:53:26.325Z,98077.05
2017-11-20T10:54:29.004Z,98073.20
2017-11-20T10:55:31.641Z,98067.34
2017-11-20T10:56:34.968Z,98067.24
2017-11-20T10:57:37.589Z,98070.52
2017-11-20T10:58:40.207Z,98070.82
2017-11-20T11:15:19.851Z,98048.67
2017-11-20T11:16:22.723Z,98045.60
2017-11-20T11:17:25.344Z,98034.15
2017-11-20T11:18:28.085Z,98032.38
2017-11-20T11:19:30.803Z,98033.07
2017-11-20T11:20:33.887Z,98033.07
2017-11-20T11:21:37.222Z,98029.02
2017-11-20T11:22:40.492Z,98027.34
2017-11-20T11:23:43.405Z,98033.77
2017-11-20T11:24:46.070Z,98026.87
2017-11-20T11:25:48.748Z,98015.58
2017-11-20T11:26:51.865Z,98021.81
2017-11-20T11:27:54.518Z,98020.34
2017-11-20T11:28:57.157Z,98015.58
2017-11-20T11:29:59.839Z,98015.91
2017-11-20T11:31:02.527Z,98017.19
2017-11-20T11:32:05.168Z,98013.13
2017-11-20T11:33:08.331Z,98014.42
2017-11-20T11:34:11.144Z,98015.80
2017-11-20T11:35:13.811Z,98008.87
2017-11-20T11:36:16.632Z,98015.80
2017-11-20T11:37:19.313Z,98009.67
2017-11-20T11:38:21.953Z,98011.44
2017-11-20T11:39:24.648Z,98007.40
2017-11-20T11:40:27.294Z,98017.97
2017-11-20T11:41:29.926Z,98003.05
2017-11-20T11:42:32.673Z,97998.61
2017-11-20T11:43:35.336Z,98002.64
2017-11-20T11:44:38.450Z,97998.91
2017-11-20T11:45:41.152Z,97998.61
2017-11-20T11:46:43.872Z,97999.95
2017-11-20T11:47:46.580Z,98000.16
2017-11-20T11:48:49.286Z,97993.87
2017-11-20T11:49:52.040Z,97996.32
2017-11-20T11:50:55.472Z,97992.47
2017-11-20T11:51:58.188Z,97988.34
2017-11-20T11:53:00.886Z,97990.69
2017-11-20T11:54:03.684Z,97983.89
2017-11-20T11:55:06.385Z,97988.91
2017-11-20T11:56:09.067Z,97992.66
2017-11-20T11:57:12.098Z,97988.89
2017-11-20T11:58:14.835Z,97985.33
2017-11-20T11:59:17.595Z,97988.00
2017-11-20T12:00:20.268Z,97985.16
2017-11-20T12:01:22.924Z,97988.51
2017-11-20T12:02:25.563Z,97981.00
2017-11-20T12:03:28.125Z,97985.92
2017-11-20T12:04:30.711Z,97987.40
2017-11-20T12:05:34.227Z,97975.66
2017-11-20T12:06:37.012Z,97980.50
2017-11-20T12:07:39.626Z,97978.50
2017-11-20T12:08:42.615Z,97977.44
2017-11-20T12:09:45.536Z,97975.45
2017-11-20T12:10:48.153Z,97977.64
2017-11-20T12:11:50.799Z,97974.46
2017-11-20T12:12:53.370Z,97972.09
2017-11-20T12:13:56.041Z,97971.69
2017-11-20T12:14:59.857Z,97976.06
2017-11-20T12:16:02.615Z,97981.08
2017-11-20T12:17:05.264Z,97973.47
2017-11-20T12:18:07.935Z,97973.66
2017-11-20T12:19:10.640Z,97974.36
2017-11-20T12:20:13.297Z,97978.02
2017-11-20T12:21:16.414Z,97977.12
2017-11-20T12:22:19.163Z,97974.77
2017-11-20T12:23:21.834Z,97967.17
2017-11-20T12:24:24.472Z,97969.62
2017-11-20T12:25:27.166Z,97969.05
2017-11-20T12:26:29.833Z,97967.36
2017-11-20T12:27:32.955Z,97962.44
2017-11-20T12:28:35.682Z,97974.28
2017-11-20T12:29:38.445Z,97969.53
2017-11-20T12:30:41.146Z,97965.58
2017-11-20T12:31:43.924Z,97958.98
2017-11-20T12:32:46.571Z,97968.25
2017-11-20T12:33:51.825Z,97968.75
2017-11-20T12:34:54.483Z,97966.37
2017-11-20T12:35:57.224Z,97970.94
2017-11-20T12:36:59.872Z,97964.20
2017-11-20T12:38:02.617Z,97967.75
2017-11-20T12:39:05.296Z,97961.66
2017-11-20T12:40:08.391Z,97965.59
2017-11-20T12:41:11.047Z,97959.27
2017-11-20T12:42:14.229Z,97963.11
2017-11-20T12:43:16.922Z,97956.80
2017-11-20T12:44:19.618Z,97959.76
2017-11-20T12:45:22.360Z,97957.70
2017-11-20T12:46:26.794Z,97950.96
2017-11-20T12:47:29.533Z,97954.81